Time;durP1;ratioP1;P1;durP2;ratioP2;P2;SDS_P1;SDS_P2;PMS_P1;PMS_P2;Temp;Humidity;BMP_temperature;BMP_pressure;BME280_temperature;BME280_humidity;BME280_pressure;Samples;Min_cycle;Max_cycle;Signal;HPM_P1;HPM_P2
2021/12/30 00:01:11;;;;;;;4.57;3.15;;;14.20;1.00;;;;;;5032343;28;20249;-71
2021/12/30 00:03:41;;;;;;;6.80;4.43;;;14.20;1.00;;;;;;5032152;28;20269;-72
2021/12/30 00:06:08;;;;;;;10.65;3.28;;;14.20;1.00;;;;;;5033209;28;20265;-73
2021/12/30 00:08:36;;;;;;;7.43;4.43;;;14.20;1.00;;;;;;5032896;28;20239;-72
2021/12/30 00:11:03;;;;;;;6.15;3.65;;;14.20;1.00;;;;;;5033163;28;20207;-73
2021/12/30 00:13:30;;;;;;;6.03;3.58;;;14.10;1.00;;;;;;5032531;28;20226;-72
2021/12/30 00:15:58;;;;;;;7.30;3.70;;;14.20;1.00;;;;;;5032686;28;20254;-72
2021/12/30 00:18:25;;;;;;;8.30;3.95;;;14.20;1.00;;;;;;5032522;28;20266;-71
2021/12/30 00:20:54;;;;;;;7.80;3.70;;;14.20;1.00;;;;;;5032982;28;20695;-72
2021/12/30 00:23:21;;;;;;;8.93;5.57;;;14.20;1.00;;;;;;5032534;28;20208;-71
2021/12/30 00:25:48;;;;;;;5.32;3.25;;;14.20;1.00;;;;;;5032698;28;20254;-72
2021/12/30 00:28:17;;;;;;;7.78;3.50;;;14.10;1.00;;;;;;5032701;28;20242;-71
2021/12/30 00:30:44;;;;;;;5.30;4.13;;;14.00;1.00;;;;;;5032939;28;20261;-71
2021/12/30 00:33:12;;;;;;;5.47;3.65;;;14.10;1.00;;;;;;5033179;28;20253;-71
2021/12/30 00:35:40;;;;;;;5.57;3.40;;;14.00;1.00;;;;;;5032410;28;20258;-71
2021/12/30 00:38:10;;;;;;;7.70;4.38;;;14.00;1.00;;;;;;5032645;28;20203;-71
2021/12/30 00:40:37;;;;;;;4.80;3.42;;;14.00;1.00;;;;;;5032176;28;20668;-71
2021/12/30 00:43:05;;;;;;;5.88;4.32;;;13.90;1.00;;;;;;5032245;28;20216;-72
2021/12/30 00:45:34;;;;;;;5.50;3.33;;;13.80;1.00;;;;;;5031794;28;20208;-71
2021/12/30 00:48:01;;;;;;;5.13;3.60;;;13.80;1.00;;;;;;5031624;28;20302;-71
2021/12/30 00:50:30;;;;;;;8.32;4.38;;;13.70;1.00;;;;;;5031985;28;20204;-71
2021/12/30 00:52:59;;;;;;;8.88;3.58;;;13.70;1.00;;;;;;5032309;28;20610;-71
2021/12/30 00:55:27;;;;;;;5.55;3.95;;;13.80;1.00;;;;;;5031684;28;20265;-71
2021/12/30 00:57:54;;;;;;;4.72;3.30;;;13.80;1.00;;;;;;5032367;28;20207;-72
2021/12/30 01:00:23;;;;;;;5.75;3.42;;;13.80;1.00;;;;;;5031803;28;20269;-72
2021/12/30 01:02:50;;;;;;;5.28;2.72;;;13.70;1.00;;;;;;5032151;28;20207;-72
2021/12/30 01:05:17;;;;;;;5.88;3.45;;;13.50;1.00;;;;;;5031852;28;20261;-72
2021/12/30 01:07:44;;;;;;;9.27;3.13;;;13.50;1.00;;;;;;5032318;28;20235;-72
2021/12/30 01:10:15;;;;;;;8.63;3.40;;;13.20;1.00;;;;;;5032269;28;20261;-72
2021/12/30 01:12:45;;;;;;;12.35;3.60;;;13.20;1.00;;;;;;5032211;28;20290;-72
2021/12/30 01:15:17;;;;;;;7.38;3.78;;;13.20;1.00;;;;;;5031828;28;20211;-72
2021/12/30 01:17:49;;;;;;;6.00;3.58;;;13.10;1.00;;;;;;5032046;28;20298;-72
2021/12/30 01:20:18;;;;;;;5.15;3.67;;;13.10;1.00;;;;;;5031777;28;20294;-73
2021/12/30 01:22:47;;;;;;;7.90;4.50;;;13.00;1.00;;;;;;5032093;28;20670;-72
2021/12/30 01:25:15;;;;;;;6.65;3.70;;;12.80;1.00;;;;;;5032174;28;20206;-72
2021/12/30 01:27:44;;;;;;;11.05;4.82;;;12.70;1.00;;;;;;5032017;28;20247;-72
2021/12/30 01:30:14;;;;;;;4.63;3.50;;;12.70;1.00;;;;;;5031653;28;20211;-71
2021/12/30 01:32:42;;;;;;;7.28;4.03;;;12.60;1.00;;;;;;5031530;28;20211;-71
2021/12/30 01:35:14;;;;;;;10.65;4.88;;;12.50;1.00;;;;;;5031412;28;20207;-72
2021/12/30 01:37:43;;;;;;;6.00;4.40;;;12.50;1.00;;;;;;5031688;28;20207;-71
2021/12/30 01:40:14;;;;;;;8.68;5.20;;;12.50;1.00;;;;;;5031320;28;20204;-72
2021/12/30 01:42:41;;;;;;;11.27;4.78;;;12.50;1.00;;;;;;5030977;28;20728;-71
2021/12/30 01:45:12;;;;;;;9.07;5.63;;;12.50;1.00;;;;;;5031107;28;20600;-71
2021/12/30 01:47:47;;;;;;;7.93;5.70;;;12.40;1.00;;;;;;5030846;28;20231;-69
2021/12/30 01:50:14;;;;;;;9.95;5.53;;;12.30;1.00;;;;;;5031508;28;20203;-70
2021/12/30 01:52:41;;;;;;;16.90;6.55;;;12.30;1.00;;;;;;5031124;28;20207;-70
2021/12/30 01:55:09;;;;;;;11.32;5.63;;;12.30;1.00;;;;;;5031176;28;20667;-69
2021/12/30 01:57:36;;;;;;;8.05;4.78;;;12.30;1.00;;;;;;5030682;28;20207;-70
2021/12/30 02:00:06;;;;;;;7.85;5.18;;;12.30;1.00;;;;;;5030883;28;20204;-69
2021/12/30 02:02:35;;;;;;;7.75;4.72;;;12.30;1.00;;;;;;5030644;28;20631;-70
2021/12/30 02:05:02;;;;;;;8.18;5.63;;;12.20;1.00;;;;;;5031077;28;20589;-70
2021/12/30 02:07:30;;;;;;;11.43;5.47;;;12.10;1.00;;;;;;5030527;28;20227;-70
2021/12/30 02:10:00;;;;;;;10.05;5.25;;;12.00;1.00;;;;;;5030909;28;20261;-70
2021/12/30 02:12:28;;;;;;;6.78;5.70;;;12.00;1.00;;;;;;5030404;28;20207;-70
2021/12/30 02:14:55;;;;;;;9.82;5.15;;;12.00;1.00;;;;;;5031177;28;20208;-70
2021/12/30 02:17:22;;;;;;;7.13;4.85;;;12.00;1.00;;;;;;5030714;28;20207;-72
2021/12/30 02:19:50;;;;;;;9.23;5.20;;;12.00;1.00;;;;;;5031052;28;20203;-71
2021/12/30 02:22:18;;;;;;;8.45;5.32;;;11.90;1.00;;;;;;5030643;28;20203;-72
2021/12/30 02:24:46;;;;;;;7.80;5.20;;;12.00;1.00;;;;;;5031032;28;20250;-73
2021/12/30 02:27:13;;;;;;;9.68;6.28;;;11.80;1.00;;;;;;5030727;28;20204;-72
2021/12/30 02:29:40;;;;;;;7.50;5.60;;;11.80;1.00;;;;;;5030805;28;20204;-72
2021/12/30 02:32:08;;;;;;;7.85;4.88;;;11.80;1.00;;;;;;5031048;28;20281;-72
2021/12/30 02:34:36;;;;;;;8.95;5.20;;;11.80;1.00;;;;;;5030590;28;20257;-71
2021/12/30 02:37:04;;;;;;;6.55;4.75;;;11.80;1.00;;;;;;5030764;28;20750;-73
2021/12/30 02:39:32;;;;;;;8.57;5.70;;;11.80;1.00;;;;;;5030280;28;20265;-72
2021/12/30 02:42:00;;;;;;;7.35;5.75;;;11.70;1.00;;;;;;5030444;28;20199;-72
2021/12/30 02:44:27;;;;;;;10.80;6.07;;;11.70;1.00;;;;;;5030350;28;20203;-71
2021/12/30 02:46:55;;;;;;;7.00;5.13;;;11.70;1.00;;;;;;5030845;28;20624;-72
2021/12/30 02:49:22;;;;;;;9.02;6.28;;;11.60;1.00;;;;;;5030304;28;20578;-72
2021/12/30 02:51:49;;;;;;;8.65;5.53;;;11.60;1.00;;;;;;5030702;28;20257;-72
2021/12/30 02:54:16;;;;;;;10.75;6.70;;;11.60;1.00;;;;;;5030179;28;20261;-72
2021/12/30 02:56:47;;;;;;;9.85;7.05;;;11.70;1.00;;;;;;5030598;28;20261;-73
2021/12/30 02:59:14;;;;;;;6.88;5.22;;;11.60;1.00;;;;;;5030764;28;20208;-73
2021/12/30 03:01:41;;;;;;;6.80;5.10;;;11.60;1.00;;;;;;5030414;28;20203;-73
2021/12/30 03:04:10;;;;;;;8.57;6.35;;;11.60;1.00;;;;;;5030546;28;20277;-72
2021/12/30 03:06:37;;;;;;;8.75;6.15;;;11.60;1.00;;;;;;5030028;28;20212;-73
2021/12/30 03:09:05;;;;;;;7.90;6.43;;;11.40;1.00;;;;;;5030520;28;20236;-72
2021/12/30 03:11:32;;;;;;;11.07;6.70;;;11.40;1.00;;;;;;5023869;28;20265;-73
2021/12/30 03:14:01;;;;;;;8.23;5.40;;;11.40;1.00;;;;;;5034200;28;20258;-73
2021/12/30 03:16:32;;;;;;;8.40;5.80;;;11.40;1.00;;;;;;5033852;28;20254;-72
2021/12/30 03:19:00;;;;;;;6.80;5.33;;;11.40;1.00;;;;;;5034073;28;20203;-72
2021/12/30 03:21:27;;;;;;;9.27;5.87;;;11.40;1.00;;;;;;5033531;28;20203;-70
2021/12/30 03:23:55;;;;;;;9.80;5.90;;;11.40;1.00;;;;;;5033967;28;20203;-71
2021/12/30 03:26:23;;;;;;;11.33;6.10;;;11.40;1.00;;;;;;5033552;28;20242;-70
2021/12/30 03:28:50;;;;;;;8.25;5.45;;;11.50;1.00;;;;;;5033622;28;20779;-71
2021/12/30 03:31:21;;;;;;;7.70;5.90;;;11.40;1.00;;;;;;5033490;28;20203;-70
2021/12/30 03:33:48;;;;;;;6.97;5.70;;;11.40;1.00;;;;;;5033659;28;20204;-70
2021/12/30 03:36:16;;;;;;;7.90;5.90;;;11.40;1.00;;;;;;5033912;28;20663;-71
2021/12/30 03:38:45;;;;;;;6.82;4.85;;;11.40;1.00;;;;;;5034216;28;20261;-70
2021/12/30 03:41:14;;;;;;;12.82;5.90;;;11.40;1.00;;;;;;5033942;28;20270;-70
2021/12/30 03:43:42;;;;;;;10.77;4.70;;;11.30;1.00;;;;;;5033488;28;20261;-69
2021/12/30 03:46:10;;;;;;;12.10;6.47;;;11.30;1.00;;;;;;5033638;28;20204;-72
2021/12/30 03:48:42;;;;;;;9.27;5.07;;;11.30;1.00;;;;;;5033336;28;20645;-71
2021/12/30 03:51:13;;;;;;;10.25;5.32;;;11.30;1.00;;;;;;5033242;28;20254;-71
2021/12/30 03:53:42;;;;;;;9.47;4.67;;;11.20;1.00;;;;;;5032882;28;20265;-70
2021/12/30 03:56:11;;;;;;;6.40;4.67;;;11.20;1.00;;;;;;5033386;28;20239;-70
2021/12/30 03:58:40;;;;;;;6.70;5.20;;;11.20;1.00;;;;;;5033037;28;20254;-70
2021/12/30 04:01:09;;;;;;;6.67;4.87;;;11.20;1.00;;;;;;5033563;28;20199;-71
2021/12/30 04:03:36;;;;;;;10.17;4.80;;;11.10;1.00;;;;;;5032990;28;20258;-72
2021/12/30 04:06:04;;;;;;;11.57;6.70;;;11.10;1.00;;;;;;5033309;28;20261;-69
2021/12/30 04:08:31;;;;;;;6.90;4.40;;;11.10;1.00;;;;;;5032639;28;20281;-72
2021/12/30 04:10:58;;;;;;;5.87;5.13;;;11.00;1.00;;;;;;5033101;28;20207;-71
2021/12/30 04:13:27;;;;;;;6.40;4.70;;;11.00;1.00;;;;;;5024865;28;20268;-72
2021/12/30 04:15:54;;;;;;;7.50;4.47;;;11.00;1.00;;;;;;5002299;28;20208;-71
2021/12/30 04:18:21;;;;;;;6.77;5.13;;;10.90;1.00;;;;;;5012795;28;20200;-71
2021/12/30 04:20:48;;;;;;;8.90;4.40;;;10.90;1.00;;;;;;5013063;28;20204;-70
2021/12/30 04:23:17;;;;;;;6.27;5.53;;;10.90;1.00;;;;;;5011819;28;20252;-71
2021/12/30 04:25:44;;;;;;;6.30;4.53;;;10.80;1.00;;;;;;5013171;28;20204;-71
2021/12/30 04:28:11;;;;;;;6.67;4.53;;;10.80;52.30;;;;;;5013165;28;20796;-70
2021/12/30 04:30:38;;;;;;;8.93;5.27;;;10.70;78.30;;;;;;5012543;28;20212;-70
2021/12/30 04:33:06;;;;;;;7.40;5.23;;;10.70;99.90;;;;;;5012566;28;20208;-70
2021/12/30 04:35:33;;;;;;;9.53;5.73;;;10.70;99.90;;;;;;5011472;28;20235;-71
2021/12/30 04:38:02;;;;;;;8.43;4.60;;;10.70;99.90;;;;;;5012847;28;20216;-72
2021/12/30 04:40:31;;;;;;;7.93;5.53;;;10.70;99.90;;;;;;5012013;28;20263;-70
2021/12/30 04:42:58;;;;;;;8.77;6.93;;;10.70;99.90;;;;;;5012553;28;20247;-71
2021/12/30 04:45:28;;;;;;;6.23;4.93;;;10.70;99.90;;;;;;5012408;28;20635;-72
2021/12/30 04:47:56;;;;;;;8.17;4.83;;;10.60;99.90;;;;;;5012458;28;20763;-71
2021/12/30 04:50:25;;;;;;;7.03;4.50;;;10.60;99.90;;;;;;5026467;28;20270;-71
2021/12/30 04:52:52;;;;;;;7.83;4.53;;;10.50;99.90;;;;;;5014531;28;20741;-71
2021/12/30 04:55:19;;;;;;;7.27;4.80;;;10.60;99.90;;;;;;5010627;28;20204;-70
2021/12/30 04:57:48;;;;;;;6.20;4.53;;;10.50;99.90;;;;;;5011245;28;20612;-71
2021/12/30 05:00:15;;;;;;;4.10;3.37;;;10.50;99.90;;;;;;5012236;28;20201;-71
2021/12/30 05:03:06;;;;;;;5.97;4.27;;;10.50;99.90;;;;;;5012718;28;20787;-71
2021/12/30 05:05:33;;;;;;;5.93;4.17;;;10.40;99.90;;;;;;5011436;28;20201;-71
2021/12/30 05:08:00;;;;;;;9.70;4.80;;;10.40;97.50;;;;;;5011945;28;20250;-71
2021/12/30 05:10:27;;;;;;;6.30;4.13;;;10.40;93.00;;;;;;5011929;28;20210;-70
2021/12/30 05:12:55;;;;;;;8.17;4.90;;;10.40;72.10;;;;;;5012223;28;20270;-71
2021/12/30 05:15:22;;;;;;;7.67;5.30;;;10.30;61.00;;;;;;5011891;28;20208;-72
2021/12/30 05:17:50;;;;;;;6.80;4.27;;;10.40;54.60;;;;;;5011506;28;20204;-71
2021/12/30 05:20:17;;;;;;;5.87;3.90;;;10.40;53.30;;;;;;5011196;28;20216;-72
2021/12/30 05:22:44;;;;;;;5.77;3.97;;;10.40;95.10;;;;;;5012383;28;20208;-72
2021/12/30 05:25:12;;;;;;;7.50;4.57;;;10.40;99.90;;;;;;5012234;28;20684;-71
2021/12/30 05:27:40;;;;;;;6.43;3.80;;;10.40;99.90;;;;;;5011523;28;20604;-71
2021/12/30 05:30:11;;;;;;;8.13;4.97;;;10.30;99.90;;;;;;5011468;28;20266;-71
2021/12/30 05:32:38;;;;;;;5.60;4.10;;;10.30;99.90;;;;;;5011303;28;20200;-70
2021/12/30 05:35:07;;;;;;;6.33;5.27;;;10.40;99.90;;;;;;5011121;28;20287;-72
2021/12/30 05:37:34;;;;;;;13.23;5.60;;;10.40;1.00;;;;;;5011407;28;20266;-72
2021/12/30 05:40:01;;;;;;;7.93;5.33;;;10.40;1.00;;;;;;5011614;28;20208;-72
2021/12/30 05:42:28;;;;;;;7.37;5.20;;;10.40;1.00;;;;;;5011191;28;20216;-72
2021/12/30 05:44:56;;;;;;;5.70;4.43;;;10.40;1.00;;;;;;5011638;28;20208;-71
2021/12/30 05:47:24;;;;;;;6.97;4.90;;;10.40;1.00;;;;;;5011185;28;20208;-71
2021/12/30 05:49:51;;;;;;;6.50;5.00;;;10.40;1.00;;;;;;5011324;28;20290;-72
2021/12/30 05:52:19;;;;;;;8.03;4.17;;;10.30;1.00;;;;;;5011218;28;20208;-72
2021/12/30 05:54:45;;;;;;;5.37;4.23;;;10.30;1.00;;;;;;5011182;28;20235;-71
2021/12/30 05:57:13;;;;;;;10.00;6.23;;;10.30;99.90;;;;;;5011292;28;20208;-72
2021/12/30 05:59:40;;;;;;;5.50;4.03;;;10.20;99.90;;;;;;5010876;28;20262;-71
2021/12/30 06:02:07;;;;;;;6.57;4.97;;;10.20;99.90;;;;;;5011172;28;20200;-71
2021/12/30 06:04:36;;;;;;;10.63;7.27;;;10.20;99.90;;;;;;5010675;28;20201;-71
2021/12/30 06:07:03;;;;;;;5.03;4.17;;;10.20;99.90;;;;;;5011185;28;20200;-71
2021/12/30 06:09:30;;;;;;;8.17;4.40;;;10.30;99.90;;;;;;5010685;28;20228;-72
2021/12/30 06:11:57;;;;;;;11.93;5.70;;;10.50;1.00;;;;;;5010929;28;20204;-71
2021/12/30 06:14:24;;;;;;;6.57;5.17;;;10.50;1.00;;;;;;5010800;28;20255;-72
2021/12/30 06:16:51;;;;;;;11.30;4.83;;;10.50;1.00;;;;;;5011040;28;20679;-72
2021/12/30 06:19:18;;;;;;;8.57;5.20;;;10.50;1.00;;;;;;5010603;28;20212;-71
2021/12/30 06:21:46;;;;;;;8.57;4.87;;;10.50;1.00;;;;;;5011354;28;20205;-72
2021/12/30 06:24:13;;;;;;;14.23;5.97;;;10.40;1.00;;;;;;5011325;28;20668;-71
2021/12/30 06:26:40;;;;;;;7.67;4.90;;;10.40;1.00;;;;;;5010955;28;20200;-73
2021/12/30 06:29:08;;;;;;;9.63;4.83;;;10.20;1.00;;;;;;5011164;28;20298;-73
2021/12/30 06:31:37;;;;;;;10.00;7.13;;;10.20;1.00;;;;;;5010459;28;20201;-71
2021/12/30 06:34:04;;;;;;;8.33;6.53;;;10.20;1.00;;;;;;5010825;28;20246;-72
2021/12/30 06:36:31;;;;;;;13.90;6.27;;;10.30;1.00;;;;;;5010515;28;20730;-70
2021/12/30 06:38:59;;;;;;;10.07;6.70;;;10.20;1.00;;;;;;5010924;28;20212;-73
2021/12/30 06:41:26;;;;;;;26.23;9.87;;;10.10;1.00;;;;;;5010408;28;20258;-72
2021/12/30 06:43:53;;;;;;;23.43;6.57;;;10.20;1.00;;;;;;5010615;28;20216;-71
2021/12/30 06:46:21;;;;;;;9.97;6.30;;;10.30;1.00;;;;;;5011296;28;20733;-72
2021/12/30 06:48:48;;;;;;;11.50;5.67;;;10.30;1.00;;;;;;5014428;28;20224;-72
2021/12/30 06:51:17;;;;;;;10.67;6.93;;;10.30;1.00;;;;;;5014706;28;20258;-70
2021/12/30 06:53:44;;;;;;;8.30;5.27;;;10.30;1.00;;;;;;5014953;28;20564;-71
2021/12/30 06:56:14;;;;;;;8.63;6.90;;;10.20;1.00;;;;;;5014955;28;20208;-70
2021/12/30 06:58:41;;;;;;;7.43;5.97;;;10.20;1.00;;;;;;5014666;28;20208;-71
2021/12/30 07:01:08;;;;;;;10.27;5.90;;;10.10;1.00;;;;;;5014730;28;20208;-71
2021/12/30 07:03:35;;;;;;;9.00;5.43;;;10.10;1.00;;;;;;5013993;28;20204;-71
2021/12/30 07:06:02;;;;;;;7.07;6.20;;;10.10;1.00;;;;;;5014568;28;20204;-71
2021/12/30 07:08:29;;;;;;;9.03;6.57;;;10.20;1.00;;;;;;5013879;28;20212;-71
2021/12/30 07:10:56;;;;;;;8.83;5.70;;;10.20;1.00;;;;;;5014515;28;20254;-71
2021/12/30 07:13:25;;;;;;;7.73;5.53;;;10.20;1.00;;;;;;5014084;28;20208;-71
2021/12/30 07:15:52;;;;;;;6.83;5.53;;;10.10;1.00;;;;;;5014316;28;20679;-73
2021/12/30 07:18:18;;;;;;;8.40;6.77;;;10.10;1.00;;;;;;5013741;28;20219;-71
2021/12/30 07:20:45;;;;;;;6.93;6.17;;;10.00;1.00;;;;;;5014227;28;20274;-72
2021/12/30 07:23:12;;;;;;;7.27;5.50;;;10.00;1.00;;;;;;5014518;28;20204;-70
2021/12/30 07:25:40;;;;;;;9.07;6.23;;;10.00;1.00;;;;;;5013637;28;20671;-70
2021/12/30 07:28:07;;;;;;;8.07;5.93;;;10.00;1.00;;;;;;5014258;28;20342;-71
2021/12/30 07:30:36;;;;;;;7.83;6.00;;;9.90;1.00;;;;;;5013561;28;20275;-71
2021/12/30 07:33:06;;;;;;;10.50;6.33;;;9.90;1.00;;;;;;5013899;28;20208;-71
2021/12/30 07:35:34;;;;;;;9.77;5.80;;;9.90;1.00;;;;;;5013449;28;20254;-71
2021/12/30 07:38:01;;;;;;;7.47;5.93;;;9.90;1.00;;;;;;5013999;28;20278;-71
2021/12/30 07:40:28;;;;;;;10.50;6.93;;;9.80;1.00;;;;;;5013585;28;20278;-71
2021/12/30 07:42:55;;;;;;;9.90;6.77;;;9.80;99.90;;;;;;5013796;28;20220;-71
2021/12/30 07:45:22;;;;;;;9.20;6.33;;;9.90;1.00;;;;;;5013124;28;20583;-72
2021/12/30 07:47:51;;;;;;;8.17;6.03;;;9.80;99.90;;;;;;5013650;28;20604;-71
2021/12/30 07:50:18;;;;;;;11.27;5.63;;;9.90;99.90;;;;;;5013334;28;20337;-71
2021/12/30 07:52:45;;;;;;;9.17;6.10;;;9.90;99.90;;;;;;5013608;28;20250;-71
2021/12/30 07:55:13;;;;;;;9.03;6.00;;;10.00;99.90;;;;;;5013995;28;20258;-72
2021/12/30 07:57:40;;;;;;;6.30;5.30;;;10.00;99.90;;;;;;5013094;28;20555;-73
2021/12/30 08:00:11;;;;;;;9.57;6.63;;;10.10;99.90;;;;;;5013273;28;20208;-71
2021/12/30 08:02:40;;;;;;;9.73;5.53;;;10.00;99.90;;;;;;5012873;28;20208;-70
2021/12/30 08:05:10;;;;;;;6.50;5.07;;;10.00;99.90;;;;;;5013574;28;20290;-70
2021/12/30 08:07:37;;;;;;;7.87;5.07;;;10.20;99.90;;;;;;5013078;28;20212;-70
2021/12/30 08:10:10;;;;;;;7.77;5.40;;;10.40;99.90;;;;;;5013218;28;20236;-70
2021/12/30 08:12:38;;;;;;;8.27;5.40;;;10.60;99.90;;;;;;5013006;28;20240;-71
2021/12/30 08:15:07;;;;;;;6.63;5.30;;;10.80;99.90;;;;;;5012649;28;20587;-70
2021/12/30 08:17:34;;;;;;;10.67;6.70;;;10.70;1.00;;;;;;5012916;28;20204;-70
2021/12/30 08:20:01;;;;;;;6.53;4.77;;;10.80;1.00;;;;;;5013249;28;20208;-70
2021/12/30 08:22:29;;;;;;;6.33;4.50;;;11.00;1.00;;;;;;5012670;28;20208;-70
2021/12/30 08:24:56;;;;;;;7.13;4.73;;;11.00;1.00;;;;;;5012990;28;20259;-70
2021/12/30 08:27:23;;;;;;;12.20;6.17;;;11.10;1.00;;;;;;5012635;28;20204;-71
2021/12/30 08:29:50;;;;;;;8.57;5.30;;;11.20;1.00;;;;;;5012616;28;20261;-71
2021/12/30 08:32:18;;;;;;;13.23;5.87;;;11.30;1.00;;;;;;5012525;28;20204;-72
2021/12/30 08:34:47;;;;;;;7.83;5.30;;;11.10;1.00;;;;;;5013068;28;20295;-70
2021/12/30 08:37:16;;;;;;;7.03;5.20;;;10.90;1.00;;;;;;5015958;28;20211;-71
2021/12/30 08:39:45;;;;;;;5.57;4.97;;;10.90;1.00;;;;;;5023997;28;20254;-70
2021/12/30 08:42:20;;;;;;;11.03;4.93;;;10.80;1.00;;;;;;5019546;28;20678;-70
2021/12/30 08:44:47;;;;;;;12.03;5.20;;;10.80;1.00;;;;;;5032492;28;20207;-72
2021/12/30 08:47:15;;;;;;;8.90;5.07;;;10.80;1.00;;;;;;5013485;28;20639;-71
2021/12/30 08:49:45;;;;;;;9.40;4.07;;;11.00;1.00;;;;;;5012495;28;20287;-71
2021/12/30 08:52:12;;;;;;;12.80;4.13;;;10.90;1.00;;;;;;5012448;28;20238;-72
2021/12/30 08:54:39;;;;;;;8.10;2.80;;;10.90;1.00;;;;;;5012047;28;20262;-71
2021/12/30 08:57:08;;;;;;;12.70;3.13;;;10.60;1.00;;;;;;5007775;28;20582;-71
2021/12/30 08:59:36;;;;;;;9.60;2.93;;;10.60;66.30;;;;;;5002408;28;20270;-73
2021/12/30 09:02:04;;;;;;;9.10;2.37;;;10.80;99.90;;;;;;5012334;28;20288;-74
2021/12/30 09:04:31;;;;;;;12.87;2.53;;;10.60;99.90;;;;;;5011902;28;20254;-71
2021/12/30 09:06:58;;;;;;;8.40;2.93;;;10.70;99.90;;;;;;5012300;28;20211;-70
2021/12/30 09:09:25;;;;;;;14.07;3.57;;;10.70;99.90;;;;;;5011182;28;20294;-70
2021/12/30 09:11:53;;;;;;;12.67;2.83;;;10.90;99.90;;;;;;5011750;28;20212;-73
2021/12/30 09:14:21;;;;;;;8.10;3.73;;;11.00;99.90;;;;;;5011644;28;20212;-70
2021/12/30 09:16:49;;;;;;;12.93;3.80;;;11.20;99.90;;;;;;5015298;28;20212;-71
2021/12/30 09:19:16;;;;;;;8.80;3.40;;;11.20;99.90;;;;;;5018637;28;20204;-71
2021/12/30 09:21:44;;;;;;;7.47;3.30;;;11.40;55.50;;;;;;5011936;28;20204;-71
2021/12/30 09:24:12;;;;;;;10.30;3.00;;;11.60;5.20;;;;;;5012277;28;20208;-71
2021/12/30 09:26:39;;;;;;;13.47;4.63;;;11.20;1.00;;;;;;5011746;28;20212;-71
2021/12/30 09:29:10;;;;;;;6.00;5.00;;;11.40;1.00;;;;;;5011715;28;20672;-71
2021/12/30 09:31:40;;;;;;;10.30;8.05;;;11.60;1.00;;;;;;5011351;28;20401;-70
2021/12/30 09:34:07;;;;;;;8.43;5.25;;;11.70;1.00;;;;;;5011803;28;20212;-70
2021/12/30 09:36:34;;;;;;;7.00;3.00;;;11.80;1.00;;;;;;5011275;28;20212;-70
2021/12/30 09:39:01;;;;;;;5.50;2.92;;;11.60;1.00;;;;;;5011388;28;20730;-71
2021/12/30 09:41:28;;;;;;;8.17;4.57;;;11.80;1.00;;;;;;5021863;28;20564;-71
2021/12/30 09:43:55;;;;;;;10.52;4.95;;;11.80;1.00;;;;;;5012137;28;20223;-72
2021/12/30 09:46:22;;;;;;;6.88;3.00;;;11.90;1.00;;;;;;5010822;28;20212;-73
2021/12/30 09:48:51;;;;;;;5.03;3.00;;;12.00;1.00;;;;;;5010779;28;20286;-71
2021/12/30 09:51:20;;;;;;;6.78;3.40;;;11.80;1.00;;;;;;5009046;28;20236;-72
2021/12/30 09:53:50;;;;;;;11.13;8.68;;;12.00;1.00;;;;;;5011159;28;20208;-74
2021/12/30 09:56:18;;;;;;;7.57;3.40;;;12.30;1.00;;;;;;5010773;28;20695;-72
2021/12/30 09:58:45;;;;;;;14.60;5.45;;;12.40;1.00;;;;;;5011366;28;20270;-73
2021/12/30 10:01:12;;;;;;;12.48;10.25;;;12.40;1.00;;;;;;5010619;28;20266;-72
2021/12/30 10:03:39;;;;;;;10.90;6.38;;;12.90;1.00;;;;;;5010386;28;20200;-71
2021/12/30 10:06:09;;;;;;;6.67;3.93;;;12.30;1.00;;;;;;5026493;28;20671;-71
2021/12/30 10:08:42;;;;;;;20.95;8.05;;;12.30;1.00;;;;;;5029986;28;20249;-71
2021/12/30 10:11:13;;;;;;;6.15;3.53;;;12.50;1.00;;;;;;5025151;28;20227;-71
2021/12/30 10:13:48;;;;;;;11.95;4.18;;;12.10;1.00;;;;;;5029052;28;20207;-71
2021/12/30 10:16:16;;;;;;;5.93;4.03;;;12.20;1.00;;;;;;5030047;28;20732;-71
2021/12/30 10:18:45;;;;;;;8.02;4.32;;;12.30;1.00;;;;;;5030201;28;20294;-72
2021/12/30 10:21:15;;;;;;;14.38;4.70;;;12.40;1.00;;;;;;5030208;28;20211;-72
2021/12/30 10:23:44;;;;;;;12.45;4.80;;;12.20;1.00;;;;;;5028415;28;20219;-73
2021/12/30 10:26:11;;;;;;;13.88;5.43;;;12.40;1.00;;;;;;5029967;28;20598;-71
2021/12/30 10:28:40;;;;;;;9.07;4.63;;;12.40;1.00;;;;;;5030373;28;20273;-71
2021/12/30 10:31:19;;;;;;;11.02;4.07;;;12.60;1.00;;;;;;5030864;28;20246;-71
2021/12/30 10:33:50;;;;;;;12.10;3.95;;;12.70;1.00;;;;;;5030726;28;20207;-72
2021/12/30 10:36:20;;;;;;;12.40;4.28;;;12.70;1.00;;;;;;5030496;28;20687;-72
2021/12/30 10:38:47;;;;;;;7.55;3.95;;;12.70;1.00;;;;;;5030406;28;20211;-71
2021/12/30 10:41:14;;;;;;;16.30;4.25;;;12.60;1.00;;;;;;5030947;28;20262;-70
2021/12/30 10:43:47;;;;;;;9.48;4.50;;;12.40;1.00;;;;;;5027030;28;20219;-71
2021/12/30 10:46:17;;;;;;;6.30;3.83;;;12.40;1.00;;;;;;5008621;28;20216;-70
2021/12/30 10:49:00;;;;;;;33.85;6.68;;;12.80;1.00;;;;;;5011279;28;20208;-71
2021/12/30 10:51:34;;;;;;;20.13;5.03;;;12.70;1.00;;;;;;5009439;28;20239;-72
2021/12/30 10:54:11;;;;;;;17.23;4.63;;;12.30;1.00;;;;;;5010362;28;20674;-72
2021/12/30 10:56:40;;;;;;;13.88;4.70;;;12.20;1.00;;;;;;5010304;28;20271;-72
2021/12/30 10:59:22;;;;;;;7.93;3.88;;;12.40;1.00;;;;;;5010705;28;20208;-71
2021/12/30 11:01:52;;;;;;;5.57;3.92;;;12.60;1.00;;;;;;5010649;28;20703;-71
2021/12/30 11:04:20;;;;;;;7.03;5.28;;;13.00;1.00;;;;;;5009035;28;20279;-70
2021/12/30 11:06:49;;;;;;;15.77;6.13;;;13.30;1.00;;;;;;5010156;28;20200;-73
2021/12/30 11:09:21;;;;;;;5.95;4.25;;;13.60;1.00;;;;;;5008474;28;20254;-73
2021/12/30 11:11:52;;;;;;;8.52;5.60;;;13.40;1.00;;;;;;5009370;28;20286;-73
2021/12/30 11:14:22;;;;;;;7.35;5.65;;;13.60;1.00;;;;;;5010216;28;20259;-73
2021/12/30 11:17:17;;;;;;;8.07;7.03;;;13.60;1.00;;;;;;5010462;28;20675;-74
2021/12/30 11:19:47;;;;;;;8.35;5.68;;;13.80;1.00;;;;;;5010951;28;20247;-74
2021/12/30 11:22:17;;;;;;;13.48;5.63;;;13.60;1.00;;;;;;5010544;28;20746;-75
2021/12/30 11:24:46;;;;;;;11.05;5.22;;;13.50;1.00;;;;;;5010568;28;20263;-75
2021/12/30 11:27:15;;;;;;;8.75;6.68;;;13.40;1.00;;;;;;5010936;28;20204;-74
2021/12/30 11:29:45;;;;;;;7.05;5.55;;;13.50;1.00;;;;;;5010267;28;20204;-74
2021/12/30 11:32:15;;;;;;;11.48;8.13;;;13.40;1.00;;;;;;5010708;28;20267;-73
2021/12/30 11:34:43;;;;;;;13.27;8.48;;;13.40;1.00;;;;;;5014075;28;20291;-73
2021/12/30 11:37:10;;;;;;;9.65;6.30;;;13.40;1.00;;;;;;5013670;28;20270;-73
2021/12/30 11:39:42;;;;;;;12.43;8.00;;;13.50;1.00;;;;;;5013359;28;20231;-74
2021/12/30 11:42:13;;;;;;;7.72;6.50;;;13.70;1.00;;;;;;4994210;28;20271;-76
2021/12/30 11:44:45;;;;;;;10.23;7.03;;;13.90;1.00;;;;;;4994374;28;20308;-76
2021/12/30 11:47:40;;;;;;;10.10;7.43;;;14.00;1.00;;;;;;4995982;28;20660;-75
2021/12/30 11:50:12;;;;;;;11.52;7.40;;;14.00;1.00;;;;;;5013473;28;20258;-76
2021/12/30 11:52:54;;;;;;;8.95;7.75;;;14.00;1.00;;;;;;5017247;28;20253;-74
2021/12/30 11:55:49;;;;;;;10.15;7.68;;;14.00;1.00;;;;;;5018101;28;20264;-73
2021/12/30 11:58:40;;;;;;;11.13;7.30;;;13.90;1.00;;;;;;5013430;28;20750;-75
2021/12/30 12:01:29;;;;;;;11.35;10.18;;;13.90;1.00;;;;;;5012135;28;20311;-74
2021/12/30 12:03:59;;;;;;;13.60;9.02;;;13.80;1.00;;;;;;5010437;28;20704;-75
2021/12/30 12:06:32;;;;;;;26.05;19.27;;;13.70;1.00;;;;;;5019289;28;20614;-74
2021/12/30 12:09:01;;;;;;;14.50;9.88;;;13.60;1.00;;;;;;5024302;28;20204;-75
2021/12/30 12:11:32;;;;;;;13.63;8.93;;;13.60;1.00;;;;;;5026681;28;20246;-75
2021/12/30 12:14:12;;;;;;;12.90;9.55;;;13.80;1.00;;;;;;5013251;28;20332;-76
2021/12/30 12:16:46;;;;;;;12.95;9.15;;;14.00;1.00;;;;;;5012934;28;20599;-74
2021/12/30 12:19:13;;;;;;;14.43;8.80;;;14.10;1.00;;;;;;5013520;28;20204;-75
2021/12/30 12:21:42;;;;;;;15.32;10.20;;;13.90;1.00;;;;;;5012559;28;20625;-72
2021/12/30 12:24:32;;;;;;;14.73;10.63;;;14.00;1.00;;;;;;5012957;28;20216;-73
2021/12/30 12:27:03;;;;;;;11.00;8.23;;;14.10;1.00;;;;;;5012179;28;20295;-73
2021/12/30 12:29:34;;;;;;;13.05;9.98;;;14.00;1.00;;;;;;5012406;28;20208;-74
2021/12/30 12:32:05;;;;;;;12.23;8.63;;;14.20;1.00;;;;;;5012875;28;20231;-75
2021/12/30 12:34:38;;;;;;;10.02;7.45;;;14.50;1.00;;;;;;5012584;28;20216;-75
2021/12/30 12:37:27;;;;;;;12.38;9.30;;;14.60;1.00;;;;;;5011982;28;20694;-74
2021/12/30 12:39:57;;;;;;;12.77;9.07;;;14.80;1.00;;;;;;5012467;28;20207;-75
2021/12/30 12:45:20;;;;;;;14.43;9.43;;;14.80;1.00;;;;;;5108708;27;20552;-74
2021/12/30 12:47:49;;;;;;;12.82;9.25;;;14.70;1.00;;;;;;5108722;28;20693;-76
2021/12/30 12:50:16;;;;;;;14.40;9.77;;;14.50;1.00;;;;;;5108351;28;20254;-75
2021/12/30 12:52:44;;;;;;;15.38;10.07;;;14.90;1.00;;;;;;5108818;28;20567;-73
2021/12/30 12:55:14;;;;;;;11.73;9.48;;;14.40;1.00;;;;;;5108944;28;20276;-74
2021/12/30 12:57:42;;;;;;;10.98;9.15;;;15.10;1.00;;;;;;5108474;28;20201;-74
2021/12/30 13:00:09;;;;;;;16.77;10.93;;;14.90;1.00;;;;;;5108461;28;20366;-75
2021/12/30 13:02:38;;;;;;;14.38;9.55;;;14.40;1.00;;;;;;5107833;28;20640;-76
2021/12/30 13:05:11;;;;;;;15.23;10.98;;;14.30;1.00;;;;;;5105872;28;20775;-74